Time,TemperatureF,DewpointF,PressureIn,WindDirection,WindDirectionDegrees,WindSpeedMPH,WindSpeedGustMPH,Humidity,HourlyPrecipIn,Conditions,Clouds,dailyrainin,SoftwareType,DateUTC
2013-01-30 00:03:00,33.6,33.6,29.47,NNW,331,6.5,10.4,100,0.04,-RA,,0.00,WeatherDisplay:10.37,2013-01-30 06:03:00,
2013-01-30 00:08:00,33.6,33.6,29.45,North,10,6.0,12.7,100,0.04,-RA,,0.00,WeatherDisplay:10.37,2013-01-30 06:08:00,
2013-01-30 00:13:00,33.7,33.7,29.44,NW,324,5.1,13.8,100,0.03,-RA,,0.00,WeatherDisplay:10.37,2013-01-30 06:13:00,
2013-01-30 00:18:00,33.6,33.6,29.43,NNE,20,3.7,6.9,100,0.04,-RA,,0.01,WeatherDisplay:10.37,2013-01-30 06:18:00,
2013-01-30 00:23:00,33.7,33.7,29.42,SSW,213,2.2,5.8,100,0.04,-RA,,0.01,WeatherDisplay:10.37,2013-01-30 06:23:00,
2013-01-30 00:28:00,33.4,33.4,29.43,NNW,345,6.8,11.5,100,0.04,-RA,,0.01,WeatherDisplay:10.37,2013-01-30 06:28:00,
2013-01-30 00:33:00,33.6,33.6,29.44,North,353,4.5,9.2,100,0.04,-RA,,0.01,WeatherDisplay:10.37,2013-01-30 06:33:00,
2013-01-30 00:38:00,33.6,33.6,29.45,North,359,5.2,9.2,100,0.03,-RA,,0.02,WeatherDisplay:10.37,2013-01-30 06:38:00,
2013-01-30 00:43:00,33.6,33.6,29.45,West,261,2.9,6.9,100,0.04,-RA,,0.02,WeatherDisplay:10.37,2013-01-30 06:43:00,
2013-01-30 00:48:00,33.7,33.7,29.47,NW,319,6.0,11.5,100,0.03,-RA,,0.02,WeatherDisplay:10.37,2013-01-30 06:48:00,
2013-01-30 00:53:00,33.6,33.6,29.47,NNE,26,8.0,13.8,100,0.03,-RA,,0.02,WeatherDisplay:10.37,2013-01-30 06:53:00,
2013-01-30 00:58:00,33.7,33.7,29.46,North,357,6.6,14.7,100,0.02,-RA,,0.02,WeatherDisplay:10.37,2013-01-30 06:58:00,
2013-01-30 01:03:00,33.6,33.6,29.45,NE,40,3.2,8.1,100,0.03,-RA,,0.03,WeatherDisplay:10.37,2013-01-30 07:03:00,
2013-01-30 01:08:00,33.3,33.3,29.43,NNE,24,7.3,13.8,100,0.03,-RA,,0.03,WeatherDisplay:10.37,2013-01-30 07:08:00,
2013-01-30 01:13:00,33.1,33.1,29.42,NE,34,6.4,11.5,100,0.03,-RA,,0.03,WeatherDisplay:10.37,2013-01-30 07:13:00,
2013-01-30 01:18:00,33.2,33.2,29.41,NE,52,6.7,10.1,100,0.02,-RA,,0.03,WeatherDisplay:10.37,2013-01-30 07:18:00,
2013-01-30 01:23:00,33.3,33.3,29.41,NNE,20,3.9,10.4,100,0.03,-RA,,0.04,WeatherDisplay:10.37,2013-01-30 07:23:00,
2013-01-30 01:28:00,33.2,33.2,29.41,NNE,20,5.0,10.4,100,0.03,-RA,,0.04,WeatherDisplay:10.37,2013-01-30 07:28:00,
2013-01-30 01:33:00,33.2,33.2,29.41,ENE,60,3.2,15.0,100,0.03,-RA,,0.04,WeatherDisplay:10.37,2013-01-30 07:33:00,
2013-01-30 01:38:00,33.0,33.0,29.40,NE,47,7.5,10.4,100,0.03,-RA,,0.04,WeatherDisplay:10.37,2013-01-30 07:38:00,
2013-01-30 01:43:00,33.0,33.0,29.39,NW,326,4.6,10.4,100,0.02,-RA,,0.04,WeatherDisplay:10.37,2013-01-30 07:43:00,
2013-01-30 01:48:00,33.0,33.0,29.39,North,3,6.0,11.5,100,0.02,-RA,,0.04,WeatherDisplay:10.37,2013-01-30 07:48:00,
2013-01-30 01:53:00,32.9,32.9,29.40,ENE,62,7.9,13.8,100,0.02,-RA,,0.04,WeatherDisplay:10.37,2013-01-30 07:53:00,
2013-01-30 01:58:00,33.0,33.0,29.39,NNE,16,7.0,11.5,100,0.02,-RA,,0.04,WeatherDisplay:10.37,2013-01-30 07:58:00,
2013-01-30 02:03:00,33.1,33.1,29.41,North,9,3.8,8.1,100,0.01,-RA,,0.04,WeatherDisplay:10.37,2013-01-30 08:03:00,
2013-01-30 02:08:00,32.9,32.9,29.40,NE,38,7.1,11.6,100,0.01,-RA,,0.04,WeatherDisplay:10.37,2013-01-30 08:08:00,
2013-01-30 02:13:00,33.1,33.1,29.41,NNE,31,4.0,9.2,100,0.01,-RA,,0.04,WeatherDisplay:10.37,2013-01-30 08:13:00,
2013-01-30 02:18:00,33.1,33.1,29.42,North,2,4.9,9.2,100,0.01,-RA,,0.04,WeatherDisplay:10.37,2013-01-30 08:18:00,
2013-01-30 02:23:00,33.0,33.0,29.42,NNE,20,4.7,9.2,100,0.00,-RA,,0.04,WeatherDisplay:10.37,2013-01-30 08:23:00,
2013-01-30 02:28:00,33.1,33.1,29.42,NNE,20,2.3,5.8,100,0.00,-RA,,0.04,WeatherDisplay:10.37,2013-01-30 08:28:00,
2013-01-30 02:33:00,33.0,33.0,29.42,NNW,345,3.0,5.8,100,0.00,-RA,,0.04,WeatherDisplay:10.37,2013-01-30 08:33:00,
2013-01-30 02:38:00,32.9,32.9,29.43,NNW,346,4.5,11.4,100,0.00,-RA,,0.04,WeatherDisplay:10.37,2013-01-30 08:38:00,
2013-01-30 02:43:00,33.0,33.0,29.43,NE,38,3.1,5.8,100,0.00,-RA,,0.04,WeatherDisplay:10.37,2013-01-30 08:43:00,
2013-01-30 02:48:00,32.9,32.9,29.43,North,6,4.3,6.9,100,0.00,-RA,,0.04,WeatherDisplay:10.37,2013-01-30 08:48:00,
2013-01-30 02:53:00,32.9,32.9,29.44,NNE,13,5.6,9.2,100,0.00,-RA,,0.04,WeatherDisplay:10.37,2013-01-30 08:53:00,
2013-01-30 02:58:00,32.9,32.9,29.44,NE,45,2.0,4.6,100,0.00,-RA,,0.04,WeatherDisplay:10.37,2013-01-30 08:58:00,
2013-01-30 03:03:00,32.9,32.9,29.44,NNE,12,2.6,4.6,100,0.01,-RA,,0.05,WeatherDisplay:10.37,2013-01-30 09:03:00,
2013-01-30 03:08:00,32.7,32.7,29.44,North,360,4.6,8.1,100,0.01,-RA,,0.05,WeatherDisplay:10.37,2013-01-30 09:08:00,
2013-01-30 03:13:00,32.7,32.7,29.44,NNE,19,1.1,3.5,100,0.01,-RA,,0.05,WeatherDisplay:10.37,2013-01-30 09:13:00,
2013-01-30 03:18:00,32.7,32.7,29.44,NNE,24,3.6,6.9,100,0.02,-RA,,0.06,WeatherDisplay:10.37,2013-01-30 09:18:00,
2013-01-30 03:23:00,32.6,32.6,29.44,NNE,20,3.4,6.9,100,0.02,-RA,,0.06,WeatherDisplay:10.37,2013-01-30 09:23:00,
2013-01-30 03:28:00,32.3,32.3,29.43,NNE,20,5.3,8.1,100,0.02,-RA,,0.06,WeatherDisplay:10.37,2013-01-30 09:28:00,
2013-01-30 03:33:00,32.4,32.4,29.43,North,9,5.0,9.2,100,0.02,-RA,,0.06,WeatherDisplay:10.37,2013-01-30 09:33:00,
2013-01-30 03:38:00,32.5,32.5,29.41,NNW,348,3.5,6.8,100,0.03,-RA,,0.07,WeatherDisplay:10.37,2013-01-30 09:38:00,
2013-01-30 03:43:00,32.4,32.4,29.41,NNE,12,3.2,5.8,100,0.03,-RA,,0.07,WeatherDisplay:10.37,2013-01-30 09:43:00,
2013-01-30 03:48:00,32.3,32.3,29.41,NNW,348,2.4,3.5,100,0.03,-RA,,0.07,WeatherDisplay:10.37,2013-01-30 09:48:00,
2013-01-30 03:53:00,32.4,32.4,29.41,NW,325,2.1,6.4,100,0.03,-RA,,0.07,WeatherDisplay:10.37,2013-01-30 09:53:00,
2013-01-30 03:58:00,32.3,32.3,29.43,WNW,298,3.1,5.8,100,0.03,-RA,,0.07,WeatherDisplay:10.37,2013-01-30 09:58:00,
2013-01-30 04:03:00,32.3,32.3,29.42,North,2,2.8,10.4,100,0.02,-SN,,0.07,WeatherDisplay:10.37,2013-01-30 10:03:00,
2013-01-30 04:08:00,32.3,32.3,29.42,NE,38,3.1,6.8,100,0.02,-SN,,0.07,WeatherDisplay:10.37,2013-01-30 10:08:00,
2013-01-30 04:13:00,32.2,32.2,29.43,NNE,23,2.8,8.1,100,0.02,-SN,,0.07,WeatherDisplay:10.37,2013-01-30 10:13:00,
2013-01-30 04:18:00,32.2,32.2,29.42,ENE,60,4.2,7.3,100,0.02,-SN,,0.08,WeatherDisplay:10.37,2013-01-30 10:18:00,
2013-01-30 04:23:00,32.0,32.0,29.41,NE,51,5.2,10.4,100,0.02,-SN,,0.08,WeatherDisplay:10.37,2013-01-30 10:23:00,
2013-01-30 04:28:00,31.8,31.8,29.39,ENE,64,7.6,10.4,100,0.02,-SN,,0.08,WeatherDisplay:10.37,2013-01-30 10:28:00,
2013-01-30 04:33:00,31.7,31.7,29.38,NNE,28,7.1,10.4,100,0.03,-SN,,0.09,WeatherDisplay:10.37,2013-01-30 10:33:00,
2013-01-30 04:38:00,31.7,31.7,29.39,NNE,20,5.0,7.9,100,0.02,-SN,,0.09,WeatherDisplay:10.37,2013-01-30 10:38:00,
2013-01-30 04:43:00,31.8,31.8,29.38,NE,44,5.2,10.9,100,0.02,-SN,,0.09,WeatherDisplay:10.37,2013-01-30 10:43:00,
2013-01-30 04:48:00,31.7,31.7,29.38,East,84,3.2,5.8,100,0.03,-SN,,0.10,WeatherDisplay:10.37,2013-01-30 10:48:00,
2013-01-30 04:53:00,31.7,31.7,29.36,NNW,342,5.0,10.4,100,0.03,-SN,,0.10,WeatherDisplay:10.37,2013-01-30 10:53:00,
2013-01-30 04:58:00,31.6,31.6,29.36,NNE,17,5.2,8.1,100,0.04,-SN,,0.11,WeatherDisplay:10.37,2013-01-30 10:58:00,
2013-01-30 05:03:00,31.5,31.5,29.36,NNE,23,4.7,9.0,100,0.04,-SN,,0.11,WeatherDisplay:10.37,2013-01-30 11:03:00,
2013-01-30 05:08:00,31.6,31.6,29.37,ENE,67,3.6,6.3,100,0.04,-SN,,0.11,WeatherDisplay:10.37,2013-01-30 11:08:00,
2013-01-30 05:13:00,31.6,31.6,29.36,NE,41,2.3,5.8,100,0.04,-SN,,0.11,WeatherDisplay:10.37,2013-01-30 11:13:00,
2013-01-30 05:18:00,31.7,31.7,29.36,NE,34,3.9,6.9,100,0.03,-SN,,0.11,WeatherDisplay:10.37,2013-01-30 11:18:00,
2013-01-30 05:23:00,31.5,31.5,29.37,NNE,33,4.1,6.9,100,0.03,-SN,,0.11,WeatherDisplay:10.37,2013-01-30 11:23:00,
2013-01-30 05:28:00,31.6,31.6,29.38,NE,34,3.0,4.6,100,0.03,-SN,,0.11,WeatherDisplay:10.37,2013-01-30 11:28:00,
2013-01-30 05:33:00,31.7,31.7,29.37,North,357,0.4,2.3,100,0.02,-SN,,0.11,WeatherDisplay:10.37,2013-01-30 11:33:00,
2013-01-30 05:38:00,31.7,31.7,29.38,NNE,20,2.2,9.0,100,0.02,-SN,,0.11,WeatherDisplay:10.37,2013-01-30 11:38:00,
2013-01-30 05:43:00,31.7,31.7,29.36,NE,37,4.1,8.1,100,0.02,-SN,,0.11,WeatherDisplay:10.37,2013-01-30 11:43:00,
2013-01-30 05:48:00,31.6,31.6,29.36,NNE,20,4.5,6.9,100,0.02,-SN,,0.12,WeatherDisplay:10.37,2013-01-30 11:48:00,
2013-01-30 05:53:00,31.6,31.6,29.37,NW,321,2.5,6.9,100,0.02,-SN,,0.12,WeatherDisplay:10.37,2013-01-30 11:53:00,
2013-01-30 05:58:00,31.6,31.6,29.34,NNE,13,4.0,5.8,100,0.01,-SN,,0.12,WeatherDisplay:10.37,2013-01-30 11:58:00,
2013-01-30 06:03:00,31.4,31.4,29.33,NNW,331,6.6,11.5,100,0.01,-SN,,0.12,WeatherDisplay:10.37,2013-01-30 12:03:00,
2013-01-30 06:08:00,31.4,31.4,29.33,NE,41,6.6,8.1,100,0.01,-SN,,0.12,WeatherDisplay:10.37,2013-01-30 12:08:00,
2013-01-30 06:13:00,31.3,31.3,29.33,NE,43,6.5,10.4,100,0.01,-SN,,0.12,WeatherDisplay:10.37,2013-01-30 12:13:00,
2013-01-30 06:18:00,31.3,31.3,29.32,North,3,7.3,10.4,100,0.02,-SN,,0.13,WeatherDisplay:10.37,2013-01-30 12:18:00,
2013-01-30 06:23:00,31.3,31.3,29.32,NNW,348,6.9,10.4,100,0.02,-SN,,0.13,WeatherDisplay:10.37,2013-01-30 12:23:00,
2013-01-30 06:28:00,31.3,31.3,29.32,NNE,33,8.0,12.7,100,0.02,-SN,,0.13,WeatherDisplay:10.37,2013-01-30 12:28:00,
2013-01-30 06:33:00,31.3,31.3,29.33,NE,44,6.5,12.7,100,0.02,-SN,,0.13,WeatherDisplay:10.37,2013-01-30 12:33:00,
2013-01-30 06:38:00,31.2,31.2,29.33,East,95,4.9,8.1,100,0.02,-SN,,0.13,WeatherDisplay:10.37,2013-01-30 12:38:00,
2013-01-30 06:43:00,31.2,31.2,29.33,NE,55,8.9,13.8,100,0.02,-SN,,0.13,WeatherDisplay:10.37,2013-01-30 12:43:00,
2013-01-30 06:48:00,31.1,31.1,29.33,ENE,61,7.3,12.7,100,0.01,-SN,,0.13,WeatherDisplay:10.37,2013-01-30 12:48:00,
2013-01-30 06:53:00,31.1,31.1,29.33,NE,48,7.7,10.4,100,0.01,-SN,,0.13,WeatherDisplay:10.37,2013-01-30 12:53:00,
2013-01-30 06:58:00,31.2,31.2,29.33,ENE,61,5.2,6.9,100,0.01,-SN,,0.13,WeatherDisplay:10.37,2013-01-30 12:58:00,
2013-01-30 07:03:00,31.1,31.1,29.33,NNE,20,6.4,9.5,100,0.01,-SN,,0.13,WeatherDisplay:10.37,2013-01-30 13:03:00,
2013-01-30 07:08:00,31.1,31.1,29.33,NNW,345,6.4,9.2,100,0.01,-SN,,0.13,WeatherDisplay:10.37,2013-01-30 13:08:00,
2013-01-30 07:13:00,31.1,31.1,29.34,NE,43,5.5,11.5,100,0.02,-SN,,0.14,WeatherDisplay:10.37,2013-01-30 13:13:00,
2013-01-30 07:18:00,31.2,31.2,29.34,NE,34,2.2,6.9,100,0.01,-SN,,0.14,WeatherDisplay:10.37,2013-01-30 13:18:00,
2013-01-30 07:23:00,31.0,31.0,29.34,NE,50,5.2,6.9,100,0.01,-SN,,0.14,WeatherDisplay:10.37,2013-01-30 13:23:00,
2013-01-30 07:28:00,31.2,31.2,29.34,NE,40,5.7,8.0,100,0.02,-SN,,0.15,WeatherDisplay:10.37,2013-01-30 13:28:00,
2013-01-30 07:33:00,31.2,31.2,29.33,East,99,3.5,7.5,100,0.02,-SN,,0.15,WeatherDisplay:10.37,2013-01-30 13:33:00,
2013-01-30 07:38:00,31.2,31.2,29.33,NNE,16,5.6,10.4,100,0.02,-SN,,0.15,WeatherDisplay:10.37,2013-01-30 13:38:00,
2013-01-30 07:43:00,31.0,31.0,29.32,NE,36,6.7,9.3,100,0.03,-SN,,0.16,WeatherDisplay:10.37,2013-01-30 13:43:00,
2013-01-30 07:48:00,31.0,31.0,29.33,NNE,20,6.0,11.5,100,0.03,-SN,,0.16,WeatherDisplay:10.37,2013-01-30 13:48:00,
2013-01-30 07:53:00,30.9,30.9,29.33,NNE,30,0.6,6.9,100,0.03,-SN,,0.16,WeatherDisplay:10.37,2013-01-30 13:53:00,
2013-01-30 07:58:00,31.1,31.1,29.33,NE,50,4.5,7.7,100,0.03,-SN,,0.16,WeatherDisplay:10.37,2013-01-30 13:58:00,
2013-01-30 08:03:00,31.0,31.0,29.33,NNE,20,5.9,8.1,100,0.04,-SN,,0.17,WeatherDisplay:10.37,2013-01-30 14:03:00,
2013-01-30 08:08:00,30.9,30.9,29.31,NE,40,10.4,15.0,100,0.04,-SN,,0.17,WeatherDisplay:10.37,2013-01-30 14:08:00,
2013-01-30 08:13:00,30.8,30.8,29.33,NE,50,6.9,10.4,100,0.03,-SN,,0.17,WeatherDisplay:10.37,2013-01-30 14:13:00,
2013-01-30 08:18:00,30.8,30.8,29.33,NE,37,6.2,11.5,100,0.04,-SN,,0.18,WeatherDisplay:10.37,2013-01-30 14:18:00,
2013-01-30 08:23:00,30.9,30.9,29.32,NNW,328,4.8,9.7,100,0.04,-SN,,0.18,WeatherDisplay:10.37,2013-01-30 14:23:00,
2013-01-30 08:28:00,31.0,31.0,29.32,North,350,2.2,4.6,100,0.03,-SN,,0.18,WeatherDisplay:10.37,2013-01-30 14:28:00,
2013-01-30 08:33:00,31.0,31.0,29.33,NNW,340,2.5,4.6,100,0.04,-SN,,0.19,WeatherDisplay:10.37,2013-01-30 14:33:00,
2013-01-30 08:38:00,31.0,31.0,29.32,NNW,343,2.3,6.9,100,0.04,-SN,,0.19,WeatherDisplay:10.37,2013-01-30 14:38:00,
2013-01-30 08:43:00,31.0,31.0,29.32,North,10,6.6,9.2,100,0.05,-SN,,0.20,WeatherDisplay:10.37,2013-01-30 14:43:00,
2013-01-30 08:48:00,31.0,31.0,29.31,NE,54,3.9,6.9,100,0.05,-SN,,0.21,WeatherDisplay:10.37,2013-01-30 14:48:00,
2013-01-30 08:53:00,31.0,31.0,29.33,NE,36,3.0,6.7,100,0.06,-SN,,0.22,WeatherDisplay:10.37,2013-01-30 14:53:00,
2013-01-30 08:58:00,31.1,31.1,29.32,NW,326,0.0,0.0,100,0.07,-SN,,0.23,WeatherDisplay:10.37,2013-01-30 14:58:00,
2013-01-30 09:03:00,31.0,31.0,29.31,NE,40,1.6,1.6,100,0.07,RA,,0.24,WeatherDisplay:10.37,2013-01-30 15:03:00,
2013-01-30 09:08:00,31.0,31.0,29.31,NW,307,3.2,5.9,100,0.08,RA,,0.26,WeatherDisplay:10.37,2013-01-30 15:08:00,
2013-01-30 09:13:00,30.9,30.9,29.31,NE,52,5.7,8.1,100,0.10,RA,,0.27,WeatherDisplay:10.37,2013-01-30 15:13:00,
2013-01-30 09:18:00,30.7,30.7,29.31,NNE,20,2.8,9.7,100,0.11,RA,,0.29,WeatherDisplay:10.37,2013-01-30 15:18:00,
2013-01-30 09:23:00,30.3,30.3,29.31,NNW,345,4.8,6.9,100,0.12,RA,,0.30,WeatherDisplay:10.37,2013-01-30 15:23:00,
2013-01-30 09:28:00,30.0,30.0,29.32,North,350,3.8,6.9,100,0.13,RA,,0.31,WeatherDisplay:10.37,2013-01-30 15:28:00,
2013-01-30 09:33:00,30.1,30.1,29.32,NNW,329,4.0,7.1,100,0.13,RA,,0.31,WeatherDisplay:10.37,2013-01-30 15:33:00,
2013-01-30 09:38:00,29.8,29.8,29.32,NW,312,4.9,11.5,100,0.13,RA,,0.32,WeatherDisplay:10.37,2013-01-30 15:38:00,
2013-01-30 09:43:00,29.6,29.6,29.32,North,353,2.4,9.2,100,0.12,RA,,0.32,WeatherDisplay:10.37,2013-01-30 15:43:00,
2013-01-30 09:48:00,29.4,29.4,29.32,North,349,6.5,10.4,100,0.12,RA,,0.33,WeatherDisplay:10.37,2013-01-30 15:48:00,
2013-01-30 09:53:00,29.4,29.4,29.32,NNE,20,4.0,9.2,100,0.12,RA,,0.34,WeatherDisplay:10.37,2013-01-30 15:53:00,
2013-01-30 09:58:00,29.2,29.2,29.32,NW,319,7.7,16.1,100,0.11,RA,,0.34,WeatherDisplay:10.37,2013-01-30 15:58:00,
2013-01-30 10:03:00,29.2,29.2,29.32,NW,316,5.7,9.1,100,0.11,RA,,0.35,WeatherDisplay:10.37,2013-01-30 16:03:00,
2013-01-30 10:08:00,29.2,29.2,29.33,NNE,19,1.0,8.1,100,0.10,RA,,0.35,WeatherDisplay:10.37,2013-01-30 16:08:00,
2013-01-30 10:13:00,29.2,29.2,29.33,NE,51,3.5,6.9,100,0.09,RA,,0.36,WeatherDisplay:10.37,2013-01-30 16:13:00,
2013-01-30 10:18:00,29.2,29.2,29.33,North,355,2.6,6.9,100,0.07,RA,,0.36,WeatherDisplay:10.37,2013-01-30 16:18:00,
2013-01-30 10:23:00,29.2,29.2,29.33,North,353,6.4,9.2,100,0.07,RA,,0.37,WeatherDisplay:10.37,2013-01-30 16:23:00,
2013-01-30 10:28:00,29.2,29.2,29.33,NNW,333,3.5,7.5,100,0.06,RA,,0.37,WeatherDisplay:10.37,2013-01-30 16:28:00,
2013-01-30 10:33:00,29.2,29.2,29.34,NW,326,4.4,8.1,100,0.07,RA,,0.38,WeatherDisplay:10.37,2013-01-30 16:33:00,
2013-01-30 10:38:00,29.0,29.0,29.33,NNW,340,6.2,9.1,100,0.07,RA,,0.39,WeatherDisplay:10.37,2013-01-30 16:38:00,
2013-01-30 10:43:00,28.9,28.9,29.33,North,9,5.4,8.1,100,0.08,RA,,0.40,WeatherDisplay:10.37,2013-01-30 16:43:00,
2013-01-30 10:48:00,28.9,28.9,29.33,NNW,329,2.8,6.9,100,0.08,RA,,0.41,WeatherDisplay:10.37,2013-01-30 16:48:00,
2013-01-30 10:53:00,28.5,28.5,29.32,North,9,6.6,9.2,100,0.08,RA,,0.42,WeatherDisplay:10.37,2013-01-30 16:53:00,
2013-01-30 10:58:00,28.2,28.2,29.32,NNW,328,5.6,9.2,100,0.08,RA,,0.42,WeatherDisplay:10.37,2013-01-30 16:58:00,
2013-01-30 11:03:00,28.0,28.0,29.32,NW,314,5.6,9.2,100,0.08,RA,,0.43,WeatherDisplay:10.37,2013-01-30 17:03:00,
2013-01-30 11:08:00,27.9,27.9,29.32,NNW,345,4.1,6.9,100,0.08,RA,,0.43,WeatherDisplay:10.37,2013-01-30 17:08:00,
2013-01-30 11:13:00,28.0,28.0,29.32,North,349,4.5,8.1,100,0.08,RA,,0.44,WeatherDisplay:10.37,2013-01-30 17:13:00,
2013-01-30 11:18:00,27.9,27.9,29.33,North,355,6.2,16.1,100,0.08,RA,,0.44,WeatherDisplay:10.37,2013-01-30 17:18:00,
2013-01-30 11:23:00,27.8,27.8,29.33,NNE,31,5.0,8.1,100,0.08,RA,,0.45,WeatherDisplay:10.37,2013-01-30 17:23:00,
2013-01-30 11:28:00,27.8,27.8,29.32,NNE,19,5.8,11.5,100,0.08,RA,,0.45,WeatherDisplay:10.37,2013-01-30 17:28:00,
2013-01-30 11:33:00,27.9,27.9,29.33,NNW,331,7.2,10.4,100,0.07,CLR,,0.45,WeatherDisplay:10.37,2013-01-30 17:33:00,
2013-01-30 11:38:00,27.9,27.9,29.32,NNW,338,6.2,12.7,100,0.06,,,0.46,WeatherDisplay:10.37,2013-01-30 17:38:00,
2013-01-30 11:43:00,27.9,27.9,29.31,NNW,343,5.5,8.1,100,0.06,RA,,0.46,WeatherDisplay:10.37,2013-01-30 17:43:00,
2013-01-30 11:48:00,28.0,28.0,29.31,SSW,199,5.5,11.5,100,0.05,RA,,0.46,WeatherDisplay:10.37,2013-01-30 17:48:00,
2013-01-30 11:53:00,28.1,28.1,29.31,NW,318,3.8,8.1,100,0.04,CLR,,0.46,WeatherDisplay:10.37,2013-01-30 17:53:00,
2013-01-30 11:58:00,28.2,28.2,29.31,NE,36,2.1,9.2,100,0.04,,,0.46,WeatherDisplay:10.37,2013-01-30 17:58:00,
2013-01-30 12:03:00,28.3,28.3,29.31,ENE,57,0.3,5.8,100,0.03,CLR,,0.46,WeatherDisplay:10.37,2013-01-30 18:03:00,
2013-01-30 12:08:00,28.2,28.2,29.31,North,3,3.7,9.2,100,0.04,RA,,0.48,WeatherDisplay:10.37,2013-01-30 18:08:00,
2013-01-30 12:13:00,28.2,28.2,29.31,North,357,3.7,11.5,100,0.04,RA,,0.49,WeatherDisplay:10.37,2013-01-30 18:13:00,
2013-01-30 12:18:00,28.4,28.4,29.31,NNW,342,5.1,6.9,100,0.05,RA,,0.49,WeatherDisplay:10.37,2013-01-30 18:18:00,
2013-01-30 12:23:00,28.4,28.4,29.31,NNE,31,4.3,8.3,100,0.05,RA,,0.50,WeatherDisplay:10.37,2013-01-30 18:23:00,
2013-01-30 12:28:00,28.2,28.2,29.31,WNW,302,2.9,11.5,100,0.05,RA,,0.50,WeatherDisplay:10.37,2013-01-30 18:28:00,
2013-01-30 12:33:00,28.2,28.2,29.31,NNW,343,2.8,8.1,100,0.05,CLR,,0.50,WeatherDisplay:10.37,2013-01-30 18:33:00,
2013-01-30 12:38:00,28.0,28.0,29.31,North,7,4.6,9.2,100,0.05,CLR,,0.50,WeatherDisplay:10.37,2013-01-30 18:38:00,
2013-01-30 12:43:00,27.9,27.9,29.30,WSW,252,6.1,9.2,100,0.04,CLR,,0.50,WeatherDisplay:10.37,2013-01-30 18:43:00,
2013-01-30 12:48:00,27.7,27.7,29.30,North,359,7.6,12.7,100,0.04,,,0.50,WeatherDisplay:10.37,2013-01-30 18:48:00,
2013-01-30 12:53:00,27.6,27.6,29.30,NW,307,5.6,11.9,100,0.04,,,0.50,WeatherDisplay:10.37,2013-01-30 18:53:00,
2013-01-30 12:58:00,27.5,27.5,29.30,North,357,3.8,9.4,100,0.05,RA,,0.51,WeatherDisplay:10.37,2013-01-30 18:58:00,
2013-01-30 13:03:00,27.6,27.6,29.30,North,355,2.3,9.1,100,0.05,-SN,,0.51,WeatherDisplay:10.37,2013-01-30 19:03:00,
2013-01-30 13:08:00,27.5,27.5,29.30,NNW,331,6.8,12.7,100,0.04,-SN,,0.51,WeatherDisplay:10.37,2013-01-30 19:08:00,
2013-01-30 13:13:00,27.4,27.4,29.30,NW,318,6.8,15.0,100,0.03,-SN,,0.51,WeatherDisplay:10.37,2013-01-30 19:13:00,
2013-01-30 13:18:00,27.4,27.4,29.30,NNE,20,6.8,11.5,100,0.02,-SN,,0.51,WeatherDisplay:10.37,2013-01-30 19:18:00,
2013-01-30 13:23:00,27.5,27.5,29.31,North,359,0.8,5.9,100,0.01,-SN,,0.51,WeatherDisplay:10.37,2013-01-30 19:23:00,
2013-01-30 13:28:00,27.1,27.1,29.31,NW,318,10.1,16.1,100,0.02,-SN,,0.52,WeatherDisplay:10.37,2013-01-30 19:28:00,
2013-01-30 13:33:00,27.1,27.1,29.31,North,360,5.5,12.7,100,0.02,-SN,,0.52,WeatherDisplay:10.37,2013-01-30 19:33:00,
2013-01-30 13:38:00,26.9,26.9,29.31,NNE,20,4.9,15.0,100,0.02,-SN,,0.52,WeatherDisplay:10.37,2013-01-30 19:38:00,
2013-01-30 13:43:00,26.8,26.8,29.31,NNE,30,8.9,16.1,100,0.02,-SN,,0.52,WeatherDisplay:10.37,2013-01-30 19:43:00,
2013-01-30 13:48:00,27.0,27.0,29.31,NNW,335,6.2,9.7,100,0.02,-SN,,0.52,WeatherDisplay:10.37,2013-01-30 19:48:00,
2013-01-30 13:53:00,26.9,26.9,29.31,NE,45,7.7,15.0,100,0.02,-SN,,0.52,WeatherDisplay:10.37,2013-01-30 19:53:00,
2013-01-30 13:58:00,26.9,26.9,29.31,NW,311,6.7,11.8,100,0.01,-SN,,0.52,WeatherDisplay:10.37,2013-01-30 19:58:00,
2013-01-30 14:03:00,26.6,26.6,29.31,NE,55,9.4,15.0,100,0.01,-SN,,0.52,WeatherDisplay:10.37,2013-01-30 20:03:00,
2013-01-30 14:08:00,26.5,26.5,29.31,NNW,329,5.4,11.5,100,0.01,-SN,,0.52,WeatherDisplay:10.37,2013-01-30 20:08:00,
2013-01-30 14:13:00,26.0,26.0,29.32,North,352,8.1,12.7,100,0.01,-SN,,0.52,WeatherDisplay:10.37,2013-01-30 20:13:00,
2013-01-30 14:18:00,25.7,25.7,29.32,North,353,11.6,21.9,100,0.01,-SN,,0.52,WeatherDisplay:10.37,2013-01-30 20:18:00,
2013-01-30 14:23:00,25.4,25.4,29.32,NNW,340,10.0,17.3,100,0.01,-SN,,0.52,WeatherDisplay:10.37,2013-01-30 20:23:00,
2013-01-30 14:28:00,25.3,25.3,29.32,NNE,20,5.5,16.1,100,0.00,-SN,,0.52,WeatherDisplay:10.37,2013-01-30 20:28:00,
2013-01-30 14:33:00,25.8,25.8,29.32,North,9,5.8,10.4,100,0.00,-SN,,0.52,WeatherDisplay:10.37,2013-01-30 20:33:00,
2013-01-30 14:38:00,25.9,25.9,29.33,North,356,4.7,5.8,100,0.00,-SN,,0.52,WeatherDisplay:10.37,2013-01-30 20:38:00,
2013-01-30 14:43:00,25.9,25.9,29.33,North,349,4.3,8.1,100,0.00,-SN,,0.52,WeatherDisplay:10.37,2013-01-30 20:43:00,
2013-01-30 14:48:00,25.6,25.6,29.33,WNW,294,7.9,10.4,100,0.00,-SN,,0.52,WeatherDisplay:10.37,2013-01-30 20:48:00,
2013-01-30 14:53:00,24.9,24.9,29.34,NE,36,7.6,16.1,100,0.00,-SN,,0.52,WeatherDisplay:10.37,2013-01-30 20:53:00,
2013-01-30 14:58:00,24.8,24.8,29.34,North,359,8.3,12.7,100,0.00,-SN,,0.52,WeatherDisplay:10.37,2013-01-30 20:58:00,
2013-01-30 15:03:00,24.8,24.8,29.34,WNW,290,6.1,15.0,100,0.00,-SN,,0.52,WeatherDisplay:10.37,2013-01-30 21:03:00,
2013-01-30 15:08:00,24.5,24.5,29.34,NNW,332,8.0,15.0,100,0.00,-SN,,0.52,WeatherDisplay:10.37,2013-01-30 21:08:00,
2013-01-30 15:13:00,24.7,24.7,29.35,North,352,5.2,13.8,100,0.00,-SN,,0.52,WeatherDisplay:10.37,2013-01-30 21:13:00,
2013-01-30 15:18:00,24.8,24.8,29.35,NNE,20,6.2,11.2,100,0.00,-SN,,0.52,WeatherDisplay:10.37,2013-01-30 21:18:00,
2013-01-30 15:23:00,24.5,24.5,29.34,NW,319,9.7,16.1,100,0.00,-SN,,0.52,WeatherDisplay:10.37,2013-01-30 21:23:00,
2013-01-30 15:28:00,24.4,24.4,29.35,North,357,7.0,12.7,100,0.00,-SN,,0.52,WeatherDisplay:10.37,2013-01-30 21:28:00,
2013-01-30 15:33:00,24.5,24.5,29.36,WNW,294,9.1,15.5,100,0.00,-SN,,0.52,WeatherDisplay:10.37,2013-01-30 21:33:00,
2013-01-30 15:38:00,24.1,24.1,29.36,NNE,20,10.3,15.0,100,0.00,-SN,,0.52,WeatherDisplay:10.37,2013-01-30 21:38:00,
2013-01-30 15:43:00,24.0,24.0,29.36,NNW,328,1.8,12.7,100,0.00,-SN,,0.52,WeatherDisplay:10.37,2013-01-30 21:43:00,
2013-01-30 15:48:00,23.9,23.9,29.36,NNW,340,8.3,17.3,100,0.00,-SN,,0.52,WeatherDisplay:10.37,2013-01-30 21:48:00,
2013-01-30 15:53:00,23.8,23.8,29.37,NW,318,5.1,8.1,100,0.01,-SN,,0.53,WeatherDisplay:10.37,2013-01-30 21:53:00,
2013-01-30 15:58:00,23.5,23.5,29.37,NW,311,8.0,16.4,100,0.01,-SN,,0.53,WeatherDisplay:10.37,2013-01-30 21:58:00,
2013-01-30 16:03:00,22.5,22.5,29.37,NW,312,9.5,17.3,100,0.01,-SN,,0.53,WeatherDisplay:10.37,2013-01-30 22:03:00,
2013-01-30 16:08:00,22.1,22.1,29.37,WNW,287,10.7,12.4,100,0.01,-SN,,0.53,WeatherDisplay:10.37,2013-01-30 22:08:00,
2013-01-30 16:13:00,22.3,22.3,29.38,NW,312,5.8,9.8,100,0.01,-SN,,0.53,WeatherDisplay:10.37,2013-01-30 22:13:00,
2013-01-30 16:18:00,21.8,21.8,29.38,NW,319,8.1,17.3,100,0.01,-SN,,0.53,WeatherDisplay:10.37,2013-01-30 22:18:00,
2013-01-30 16:23:00,21.5,21.5,29.39,NW,312,7.5,12.7,100,0.01,-SN,,0.53,WeatherDisplay:10.37,2013-01-30 22:23:00,
2013-01-30 16:28:00,21.2,21.2,29.39,WNW,284,9.4,16.5,100,0.01,-SN,,0.53,WeatherDisplay:10.37,2013-01-30 22:28:00,
2013-01-30 16:33:00,20.8,20.8,29.39,NNW,346,8.5,12.8,100,0.01,-SN,,0.53,WeatherDisplay:10.37,2013-01-30 22:33:00,
2013-01-30 16:38:00,20.2,20.2,29.40,NNW,328,9.2,15.7,100,0.01,-SN,,0.53,WeatherDisplay:10.37,2013-01-30 22:38:00,
2013-01-30 16:43:00,20.2,20.2,29.40,NW,325,4.0,11.1,100,0.01,-SN,,0.53,WeatherDisplay:10.37,2013-01-30 22:43:00,
2013-01-30 16:48:00,20.1,20.1,29.40,NW,324,7.6,15.0,100,0.01,-SN,,0.53,WeatherDisplay:10.37,2013-01-30 22:48:00,
2013-01-30 16:53:00,19.9,19.9,29.40,WNW,284,3.8,5.4,100,0.00,-SN,,0.53,WeatherDisplay:10.37,2013-01-30 22:53:00,
2013-01-30 16:58:00,19.8,19.8,29.41,NW,326,10.0,10.0,100,0.00,-SN,,0.53,WeatherDisplay:10.37,2013-01-30 22:58:00,
2013-01-30 17:03:00,19.9,19.9,29.41,NNW,346,7.0,12.7,100,0.00,-SN,,0.53,WeatherDisplay:10.37,2013-01-30 23:03:00,
2013-01-30 17:08:00,19.8,19.8,29.41,WNW,290,9.7,12.7,100,0.00,-SN,,0.53,WeatherDisplay:10.37,2013-01-30 23:08:00,
2013-01-30 17:13:00,19.6,19.6,29.41,NNW,329,8.7,15.0,100,0.00,-SN,,0.53,WeatherDisplay:10.37,2013-01-30 23:13:00,
2013-01-30 17:18:00,19.5,19.5,29.42,NNW,331,9.6,14.5,100,0.00,-SN,,0.53,WeatherDisplay:10.37,2013-01-30 23:18:00,
2013-01-30 17:23:00,19.5,19.5,29.42,WNW,285,10.4,12.7,100,0.00,-SN,,0.53,WeatherDisplay:10.37,2013-01-30 23:23:00,
2013-01-30 17:28:00,19.2,19.2,29.42,NW,319,7.6,15.0,100,0.00,-SN,,0.53,WeatherDisplay:10.37,2013-01-30 23:28:00,
2013-01-30 17:33:00,19.3,19.3,29.43,NW,304,4.2,9.2,100,0.00,-SN,,0.53,WeatherDisplay:10.37,2013-01-30 23:33:00,
2013-01-30 17:38:00,19.2,19.2,29.43,NW,304,6.4,11.5,100,0.00,-SN,,0.53,WeatherDisplay:10.37,2013-01-30 23:38:00,
2013-01-30 17:43:00,19.2,19.2,29.44,NW,311,8.7,16.1,100,0.00,-SN,,0.53,WeatherDisplay:10.37,2013-01-30 23:43:00,
2013-01-30 17:48:00,19.2,19.2,29.44,North,350,10.1,12.7,100,0.00,-SN,,0.53,WeatherDisplay:10.37,2013-01-30 23:48:00,
2013-01-30 17:53:00,19.1,19.1,29.44,WNW,302,8.2,26.5,100,0.00,-SN,,0.53,WeatherDisplay:10.37,2013-01-30 23:53:00,
2013-01-30 17:58:00,18.8,18.8,29.44,NNW,331,8.4,17.3,100,0.00,-SN,,0.53,WeatherDisplay:10.37,2013-01-30 23:58:00,
2013-01-30 18:03:00,18.9,18.9,29.45,NW,324,5.4,10.4,100,0.00,-SN,,0.53,WeatherDisplay:10.37,2013-01-31 00:03:00,
2013-01-30 18:08:00,18.7,18.7,29.45,WNW,295,7.6,12.7,100,0.00,-SN,,0.53,WeatherDisplay:10.37,2013-01-31 00:08:00,
2013-01-30 18:13:00,18.6,18.6,29.45,West,278,6.8,12.7,100,0.00,-SN,,0.53,WeatherDisplay:10.37,2013-01-31 00:13:00,
2013-01-30 18:18:00,18.8,18.8,29.45,NW,318,6.6,9.2,100,0.00,-SN,,0.53,WeatherDisplay:10.37,2013-01-31 00:18:00,
2013-01-30 18:23:00,18.7,18.7,29.45,West,270,4.2,7.2,100,0.00,-SN,,0.53,WeatherDisplay:10.37,2013-01-31 00:23:00,
2013-01-30 18:28:00,18.7,18.7,29.46,West,264,8.3,12.7,100,0.00,-SN,,0.53,WeatherDisplay:10.37,2013-01-31 00:28:00,
2013-01-30 18:33:00,18.4,18.4,29.46,NW,311,6.2,6.9,100,0.00,-SN,,0.53,WeatherDisplay:10.37,2013-01-31 00:33:00,
2013-01-30 18:38:00,18.2,18.2,29.46,NW,304,6.9,16.1,100,0.00,-SN,,0.53,WeatherDisplay:10.37,2013-01-31 00:38:00,
2013-01-30 18:43:00,17.9,17.9,29.47,NW,304,6.3,11.5,100,0.00,-SN,,0.53,WeatherDisplay:10.37,2013-01-31 00:43:00,
2013-01-30 18:48:00,17.9,17.9,29.47,NW,319,7.6,7.6,100,0.00,-SN,,0.53,WeatherDisplay:10.37,2013-01-31 00:48:00,
2013-01-30 18:53:00,17.8,17.8,29.47,NW,319,4.4,8.1,100,0.00,-SN,,0.53,WeatherDisplay:10.37,2013-01-31 00:53:00,
2013-01-30 18:58:00,18.0,18.0,29.47,NW,312,6.5,11.5,100,0.00,-SN,,0.53,WeatherDisplay:10.37,2013-01-31 00:58:00,
2013-01-30 19:03:00,17.9,17.9,29.47,WNW,295,3.4,12.7,100,0.00,-SN,,0.53,WeatherDisplay:10.37,2013-01-31 01:03:00,
2013-01-30 19:08:00,17.8,17.8,29.47,WNW,294,9.2,14.5,100,0.00,-SN,,0.53,WeatherDisplay:10.37,2013-01-31 01:08:00,
2013-01-30 19:13:00,17.7,17.7,29.48,NW,318,7.0,12.7,100,0.00,-SN,,0.53,WeatherDisplay:10.37,2013-01-31 01:13:00,
2013-01-30 19:18:00,17.4,17.4,29.48,NW,318,6.9,15.0,100,0.00,-SN,,0.53,WeatherDisplay:10.37,2013-01-31 01:18:00,
2013-01-30 19:23:00,17.7,17.7,29.48,NW,324,5.0,12.7,100,0.00,-SN,,0.53,WeatherDisplay:10.37,2013-01-31 01:23:00,
2013-01-30 19:28:00,17.6,17.6,29.48,NNW,339,3.3,10.1,100,0.00,-SN,,0.53,WeatherDisplay:10.37,2013-01-31 01:28:00,
2013-01-30 19:33:00,17.3,17.3,29.48,NNE,19,1.7,9.2,100,0.00,-SN,,0.53,WeatherDisplay:10.37,2013-01-31 01:33:00,
2013-01-30 19:38:00,16.8,16.6,29.48,NW,321,11.5,20.7,99,0.00,-SN,,0.53,WeatherDisplay:10.37,2013-01-31 01:38:00,
2013-01-30 19:43:00,16.6,16.1,29.49,WNW,284,11.4,16.1,98,0.00,-SN,,0.53,WeatherDisplay:10.37,2013-01-31 01:43:00,
2013-01-30 19:48:00,16.4,15.7,29.49,North,355,5.4,15.0,97,0.00,-SN,,0.53,WeatherDisplay:10.37,2013-01-31 01:48:00,
2013-01-30 19:53:00,16.4,16.2,29.49,WNW,301,5.2,11.5,99,0.00,-SN,,0.53,WeatherDisplay:10.37,2013-01-31 01:53:00,
2013-01-30 19:58:00,16.4,16.2,29.49,WNW,300,6.9,15.7,99,0.00,-SN,,0.53,WeatherDisplay:10.37,2013-01-31 01:58:00,
2013-01-30 20:03:00,16.2,16.0,29.49,North,3,8.4,9.2,99,0.00,-SN,,0.53,WeatherDisplay:10.37,2013-01-31 02:03:00,
2013-01-30 20:08:00,16.3,15.8,29.50,NE,43,6.8,13.8,98,0.00,-SN,,0.53,WeatherDisplay:10.37,2013-01-31 02:08:00,
2013-01-30 20:13:00,16.2,15.7,29.50,West,277,6.8,11.5,98,0.00,-SN,,0.53,WeatherDisplay:10.37,2013-01-31 02:13:00,
2013-01-30 20:18:00,16.0,15.5,29.50,WNW,301,5.1,12.7,98,0.00,-SN,,0.53,WeatherDisplay:10.37,2013-01-31 02:18:00,
2013-01-30 20:23:00,15.9,15.4,29.50,North,9,7.6,11.5,98,0.00,-SN,,0.53,WeatherDisplay:10.37,2013-01-31 02:23:00,
2013-01-30 20:28:00,15.8,15.3,29.50,NW,311,1.6,5.8,98,0.00,-SN,,0.53,WeatherDisplay:10.37,2013-01-31 02:28:00,
2013-01-30 20:33:00,15.3,14.8,29.50,West,277,7.8,10.4,98,0.00,-SN,,0.53,WeatherDisplay:10.37,2013-01-31 02:33:00,
2013-01-30 20:38:00,15.3,14.8,29.50,WSW,252,5.8,8.1,98,0.00,-SN,,0.53,WeatherDisplay:10.37,2013-01-31 02:38:00,
2013-01-30 20:43:00,15.3,15.1,29.51,West,281,4.7,9.2,99,0.00,-SN,,0.53,WeatherDisplay:10.37,2013-01-31 02:43:00,
2013-01-30 20:48:00,15.3,14.8,29.51,NW,309,4.1,9.2,98,0.00,-SN,,0.53,WeatherDisplay:10.37,2013-01-31 02:48:00,
2013-01-30 20:53:00,15.5,15.0,29.51,NNW,348,5.5,9.2,98,0.00,-SN,,0.53,WeatherDisplay:10.37,2013-01-31 02:53:00,
2013-01-30 20:58:00,15.4,14.9,29.52,WNW,294,5.8,8.1,98,0.00,-SN,,0.53,WeatherDisplay:10.37,2013-01-31 02:58:00,
2013-01-30 21:03:00,15.6,15.4,29.52,NW,311,3.2,11.5,99,0.00,-SN,,0.53,WeatherDisplay:10.37,2013-01-31 03:03:00,
2013-01-30 21:08:00,15.6,15.1,29.52,NNW,331,6.1,13.8,98,0.00,-SN,,0.53,WeatherDisplay:10.37,2013-01-31 03:08:00,
2013-01-30 21:13:00,15.4,14.5,29.52,NW,315,5.9,12.7,96,0.00,-SN,,0.53,WeatherDisplay:10.37,2013-01-31 03:13:00,
2013-01-30 21:18:00,15.5,14.6,29.53,WNW,292,6.4,9.2,96,0.00,-SN,,0.53,WeatherDisplay:10.37,2013-01-31 03:18:00,
2013-01-30 21:23:00,15.7,15.5,29.53,NW,324,4.3,9.2,99,0.00,-SN,,0.53,WeatherDisplay:10.37,2013-01-31 03:23:00,
2013-01-30 21:28:00,15.4,15.4,29.53,NW,324,7.6,12.7,100,0.00,-SN,,0.53,WeatherDisplay:10.37,2013-01-31 03:28:00,
2013-01-30 21:33:00,15.4,15.4,29.53,WSW,250,8.3,9.6,100,0.00,-SN,,0.53,WeatherDisplay:10.37,2013-01-31 03:33:00,
2013-01-30 21:38:00,15.1,15.1,29.53,NW,318,7.1,10.4,100,0.00,-SN,,0.53,WeatherDisplay:10.37,2013-01-31 03:38:00,
2013-01-30 21:43:00,14.8,14.1,29.53,WNW,297,12.5,15.7,97,0.00,-SN,,0.53,WeatherDisplay:10.37,2013-01-31 03:43:00,
2013-01-30 21:48:00,14.9,14.4,29.54,NW,311,4.7,6.9,98,0.00,-SN,,0.53,WeatherDisplay:10.37,2013-01-31 03:48:00,
2013-01-30 21:53:00,14.8,13.9,29.54,NW,322,5.7,11.5,96,0.00,-SN,,0.53,WeatherDisplay:10.37,2013-01-31 03:53:00,
2013-01-30 21:58:00,14.9,14.4,29.54,West,266,2.6,9.2,98,0.00,-SN,,0.53,WeatherDisplay:10.37,2013-01-31 03:58:00,
2013-01-30 22:03:00,14.7,14.7,29.54,NW,312,3.2,8.5,100,0.00,-SN,,0.53,WeatherDisplay:10.37,2013-01-31 04:03:00,
2013-01-30 22:08:00,14.3,13.8,29.54,WNW,298,9.9,19.6,98,0.00,-SN,,0.53,WeatherDisplay:10.37,2013-01-31 04:08:00,
2013-01-30 22:13:00,14.3,13.4,29.55,NNW,340,7.0,17.3,96,0.00,-SN,,0.53,WeatherDisplay:10.37,2013-01-31 04:13:00,
2013-01-30 22:18:00,14.4,13.5,29.55,WNW,285,5.5,11.5,96,0.00,-SN,,0.53,WeatherDisplay:10.37,2013-01-31 04:18:00,
2013-01-30 22:23:00,14.0,12.8,29.55,NNW,333,6.8,13.8,95,0.00,-SN,,0.53,WeatherDisplay:10.37,2013-01-31 04:23:00,
2013-01-30 22:28:00,13.8,12.6,29.55,NNW,338,8.8,13.5,95,0.00,-SN,,0.53,WeatherDisplay:10.37,2013-01-31 04:28:00,
2013-01-30 22:33:00,13.9,12.5,29.55,NNW,339,7.7,11.5,94,0.00,-SN,,0.53,WeatherDisplay:10.37,2013-01-31 04:33:00,
2013-01-30 22:38:00,14.0,12.8,29.55,NW,322,7.6,12.7,95,0.00,-SN,,0.53,WeatherDisplay:10.37,2013-01-31 04:38:00,
2013-01-30 22:43:00,14.0,13.1,29.55,NNW,336,4.6,8.1,96,0.00,-SN,,0.53,WeatherDisplay:10.37,2013-01-31 04:43:00,
2013-01-30 22:48:00,14.1,13.6,29.55,WNW,301,5.3,8.1,98,0.00,-SN,,0.53,WeatherDisplay:10.37,2013-01-31 04:48:00,
2013-01-30 22:53:00,14.0,13.5,29.55,WNW,287,5.1,12.7,98,0.00,-SN,,0.53,WeatherDisplay:10.37,2013-01-31 04:53:00,
2013-01-30 22:58:00,13.9,13.4,29.55,NW,304,6.4,11.0,98,0.00,-SN,,0.53,WeatherDisplay:10.37,2013-01-31 04:58:00,
2013-01-30 23:00:00,14.1,13.6,29.56,NW,318,4.5,10.4,98,0.00,-SN,,0.53,WeatherDisplay:10.37,2013-01-31 05:00:00,
2013-01-30 23:06:00,13.9,13.4,29.55,West,270,5.9,12.7,98,0.00,-SN,,0.53,WeatherDisplay:10.37,2013-01-31 05:06:00,
2013-01-30 23:11:00,14.0,13.5,29.56,WNW,284,6.0,10.4,98,0.00,-SN,,0.53,WeatherDisplay:10.37,2013-01-31 05:11:00,
2013-01-30 23:16:00,13.8,13.3,29.56,West,278,7.1,12.7,98,0.00,-SN,,0.53,WeatherDisplay:10.37,2013-01-31 05:16:00,
2013-01-30 23:21:00,14.0,13.5,29.56,WNW,285,3.6,5.8,98,0.00,-SN,,0.53,WeatherDisplay:10.37,2013-01-31 05:21:00,
2013-01-30 23:26:00,13.8,13.1,29.57,North,359,7.6,16.1,97,0.00,-SN,,0.53,WeatherDisplay:10.37,2013-01-31 05:26:00,
2013-01-30 23:31:00,13.7,13.0,29.56,SW,228,5.5,8.1,97,0.00,-SN,,0.53,WeatherDisplay:10.37,2013-01-31 05:31:00,
2013-01-30 23:36:00,13.7,12.8,29.57,NNW,328,6.1,10.8,96,0.00,-SN,,0.53,WeatherDisplay:10.37,2013-01-31 05:36:00,
2013-01-30 23:41:00,13.5,12.6,29.57,SW,229,6.1,9.2,96,0.00,-SN,,0.53,WeatherDisplay:10.37,2013-01-31 05:41:00,
2013-01-30 23:46:00,13.7,12.8,29.57,NNW,333,6.0,12.7,96,0.00,-SN,,0.53,WeatherDisplay:10.37,2013-01-31 05:46:00,
2013-01-30 23:51:00,13.5,12.6,29.57,West,268,3.5,8.1,96,0.00,-SN,,0.53,WeatherDisplay:10.37,2013-01-31 05:51:00,
2013-01-30 23:56:00,13.5,12.6,29.57,WSW,257,1.7,6.9,96,0.00,-SN,,0.53,WeatherDisplay:10.37,2013-01-31 05:56:00,